sensor_id;sensor_type;location;lat;lon;timestamp;P1;durP1;ratioP1;P2;durP2;ratioP2
3267;SDS011;1646;52.450;13.326;2023-11-18T00:02:36;9.60;;;5.60;;
3267;SDS011;1646;52.450;13.326;2023-11-18T00:07:36;7.90;;;5.13;;
3267;SDS011;1646;52.450;13.326;2023-11-18T00:12:34;10.03;;;5.90;;
3267;SDS011;1646;52.450;13.326;2023-11-18T00:17:33;8.90;;;5.77;;
3267;SDS011;1646;52.450;13.326;2023-11-18T00:22:32;8.30;;;5.40;;
3267;SDS011;1646;52.450;13.326;2023-11-18T00:27:32;9.13;;;5.63;;
3267;SDS011;1646;52.450;13.326;2023-11-18T00:32:32;6.70;;;4.97;;
3267;SDS011;1646;52.450;13.326;2023-11-18T00:37:32;7.90;;;5.50;;
3267;SDS011;1646;52.450;13.326;2023-11-18T00:42:32;7.10;;;5.17;;
3267;SDS011;1646;52.450;13.326;2023-11-18T00:47:30;7.73;;;5.47;;
3267;SDS011;1646;52.450;13.326;2023-11-18T00:52:28;12.43;;;5.90;;
3267;SDS011;1646;52.450;13.326;2023-11-18T00:57:27;8.87;;;5.40;;
3267;SDS011;1646;52.450;13.326;2023-11-18T01:02:27;7.63;;;4.77;;
3267;SDS011;1646;52.450;13.326;2023-11-18T01:07:25;9.57;;;5.50;;
3267;SDS011;1646;52.450;13.326;2023-11-18T01:12:23;9.50;;;5.10;;
3267;SDS011;1646;52.450;13.326;2023-11-18T01:17:23;8.10;;;5.40;;
3267;SDS011;1646;52.450;13.326;2023-11-18T01:22:22;9.40;;;5.30;;
3267;SDS011;1646;52.450;13.326;2023-11-18T01:27:21;7.70;;;5.43;;
3267;SDS011;1646;52.450;13.326;2023-11-18T01:32:19;7.20;;;4.53;;
3267;SDS011;1646;52.450;13.326;2023-11-18T01:37:18;7.53;;;5.33;;
3267;SDS011;1646;52.450;13.326;2023-11-18T01:42:19;7.73;;;5.03;;
3267;SDS011;1646;52.450;13.326;2023-11-18T01:47:17;7.73;;;5.93;;
3267;SDS011;1646;52.450;13.326;2023-11-18T01:52:16;7.50;;;5.07;;
3267;SDS011;1646;52.450;13.326;2023-11-18T01:57:14;8.40;;;5.00;;
3267;SDS011;1646;52.450;13.326;2023-11-18T02:02:15;9.80;;;5.53;;
3267;SDS011;1646;52.450;13.326;2023-11-18T02:07:15;11.03;;;6.03;;
3267;SDS011;1646;52.450;13.326;2023-11-18T02:12:16;8.47;;;6.30;;
3267;SDS011;1646;52.450;13.326;2023-11-18T02:17:22;10.00;;;6.23;;
3267;SDS011;1646;52.450;13.326;2023-11-18T02:22:23;9.97;;;6.47;;
3267;SDS011;1646;52.450;13.326;2023-11-18T02:27:23;12.23;;;6.30;;
3267;SDS011;1646;52.450;13.326;2023-11-18T02:32:25;9.80;;;6.30;;
3267;SDS011;1646;52.450;13.326;2023-11-18T02:37:28;10.07;;;6.23;;
3267;SDS011;1646;52.450;13.326;2023-11-18T02:42:30;9.50;;;6.10;;
3267;SDS011;1646;52.450;13.326;2023-11-18T02:47:29;11.57;;;6.50;;
3267;SDS011;1646;52.450;13.326;2023-11-18T02:52:28;11.13;;;7.23;;
3267;SDS011;1646;52.450;13.326;2023-11-18T02:57:26;11.13;;;6.70;;
3267;SDS011;1646;52.450;13.326;2023-11-18T03:02:26;8.90;;;6.20;;
3267;SDS011;1646;52.450;13.326;2023-11-18T03:07:28;9.77;;;6.27;;
3267;SDS011;1646;52.450;13.326;2023-11-18T03:12:27;10.27;;;5.80;;
3267;SDS011;1646;52.450;13.326;2023-11-18T03:17:27;9.27;;;6.17;;
3267;SDS011;1646;52.450;13.326;2023-11-18T03:22:25;8.83;;;5.70;;
3267;SDS011;1646;52.450;13.326;2023-11-18T03:27:25;10.87;;;6.07;;
3267;SDS011;1646;52.450;13.326;2023-11-18T03:32:23;10.80;;;6.57;;
3267;SDS011;1646;52.450;13.326;2023-11-18T03:37:23;10.80;;;6.67;;
3267;SDS011;1646;52.450;13.326;2023-11-18T03:42:21;9.50;;;5.73;;
3267;SDS011;1646;52.450;13.326;2023-11-18T03:47:19;11.77;;;6.80;;
3267;SDS011;1646;52.450;13.326;2023-11-18T03:52:20;11.70;;;6.30;;
3267;SDS011;1646;52.450;13.326;2023-11-18T03:57:20;9.60;;;6.30;;
3267;SDS011;1646;52.450;13.326;2023-11-18T04:02:18;14.30;;;6.13;;
3267;SDS011;1646;52.450;13.326;2023-11-18T04:07:16;9.73;;;6.17;;
3267;SDS011;1646;52.450;13.326;2023-11-18T04:12:15;14.33;;;6.83;;
3267;SDS011;1646;52.450;13.326;2023-11-18T04:17:14;14.43;;;7.70;;
3267;SDS011;1646;52.450;13.326;2023-11-18T04:22:13;11.33;;;7.07;;
3267;SDS011;1646;52.450;13.326;2023-11-18T04:27:11;10.17;;;6.57;;
3267;SDS011;1646;52.450;13.326;2023-11-18T04:32:09;12.17;;;7.50;;
3267;SDS011;1646;52.450;13.326;2023-11-18T04:37:11;19.30;;;7.63;;
3267;SDS011;1646;52.450;13.326;2023-11-18T04:42:10;14.10;;;7.40;;
3267;SDS011;1646;52.450;13.326;2023-11-18T04:47:09;15.80;;;7.67;;
3267;SDS011;1646;52.450;13.326;2023-11-18T04:52:08;14.40;;;7.80;;
3267;SDS011;1646;52.450;13.326;2023-11-18T04:57:08;12.23;;;7.30;;
3267;SDS011;1646;52.450;13.326;2023-11-18T05:02:06;13.50;;;8.03;;
3267;SDS011;1646;52.450;13.326;2023-11-18T05:07:05;14.20;;;7.83;;
3267;SDS011;1646;52.450;13.326;2023-11-18T05:12:03;14.23;;;8.17;;
3267;SDS011;1646;52.450;13.326;2023-11-18T05:17:04;12.77;;;7.23;;
3267;SDS011;1646;52.450;13.326;2023-11-18T05:22:03;13.00;;;7.53;;
3267;SDS011;1646;52.450;13.326;2023-11-18T05:27:02;14.50;;;7.93;;
3267;SDS011;1646;52.450;13.326;2023-11-18T05:32:01;13.93;;;8.40;;
3267;SDS011;1646;52.450;13.326;2023-11-18T05:37:00;10.80;;;6.63;;
3267;SDS011;1646;52.450;13.326;2023-11-18T05:41:59;12.90;;;7.90;;
3267;SDS011;1646;52.450;13.326;2023-11-18T05:46:57;13.23;;;7.33;;
3267;SDS011;1646;52.450;13.326;2023-11-18T05:51:56;13.17;;;6.90;;
3267;SDS011;1646;52.450;13.326;2023-11-18T05:56:56;14.10;;;7.90;;
3267;SDS011;1646;52.450;13.326;2023-11-18T06:01:56;15.23;;;8.33;;
3267;SDS011;1646;52.450;13.326;2023-11-18T06:06:54;12.60;;;7.53;;
3267;SDS011;1646;52.450;13.326;2023-11-18T06:11:53;17.07;;;7.73;;
3267;SDS011;1646;52.450;13.326;2023-11-18T06:16:52;15.83;;;7.20;;
3267;SDS011;1646;52.450;13.326;2023-11-18T06:21:52;12.20;;;7.23;;
3267;SDS011;1646;52.450;13.326;2023-11-18T06:26:51;12.37;;;7.03;;
3267;SDS011;1646;52.450;13.326;2023-11-18T06:31:49;15.60;;;7.00;;
3267;SDS011;1646;52.450;13.326;2023-11-18T06:36:50;12.50;;;6.80;;
3267;SDS011;1646;52.450;13.326;2023-11-18T06:41:48;17.50;;;7.77;;
3267;SDS011;1646;52.450;13.326;2023-11-18T06:46:47;12.77;;;7.60;;
3267;SDS011;1646;52.450;13.326;2023-11-18T06:51:49;11.97;;;7.20;;
3267;SDS011;1646;52.450;13.326;2023-11-18T06:56:47;13.23;;;6.80;;
3267;SDS011;1646;52.450;13.326;2023-11-18T07:01:48;10.97;;;6.77;;
3267;SDS011;1646;52.450;13.326;2023-11-18T07:06:46;12.10;;;6.67;;
3267;SDS011;1646;52.450;13.326;2023-11-18T07:11:45;10.97;;;7.20;;
3267;SDS011;1646;52.450;13.326;2023-11-18T07:16:45;13.90;;;7.47;;
3267;SDS011;1646;52.450;13.326;2023-11-18T07:21:44;11.60;;;7.40;;
3267;SDS011;1646;52.450;13.326;2023-11-18T07:26:42;16.67;;;6.97;;
3267;SDS011;1646;52.450;13.326;2023-11-18T07:31:43;17.73;;;6.87;;
3267;SDS011;1646;52.450;13.326;2023-11-18T07:36:43;11.23;;;6.70;;
3267;SDS011;1646;52.450;13.326;2023-11-18T07:41:42;15.13;;;6.50;;
3267;SDS011;1646;52.450;13.326;2023-11-18T07:46:43;13.40;;;7.87;;
3267;SDS011;1646;52.450;13.326;2023-11-18T07:51:42;13.23;;;6.83;;
3267;SDS011;1646;52.450;13.326;2023-11-18T07:56:40;12.30;;;7.47;;
3267;SDS011;1646;52.450;13.326;2023-11-18T08:01:40;10.97;;;6.50;;
3267;SDS011;1646;52.450;13.326;2023-11-18T08:06:42;13.00;;;7.00;;
3267;SDS011;1646;52.450;13.326;2023-11-18T08:11:40;11.03;;;6.27;;
3267;SDS011;1646;52.450;13.326;2023-11-18T08:16:39;12.13;;;7.43;;
3267;SDS011;1646;52.450;13.326;2023-11-18T08:21:37;12.93;;;7.60;;
3267;SDS011;1646;52.450;13.326;2023-11-18T08:26:36;12.10;;;7.20;;
3267;SDS011;1646;52.450;13.326;2023-11-18T08:31:35;13.73;;;7.23;;
3267;SDS011;1646;52.450;13.326;2023-11-18T08:36:36;13.83;;;7.83;;
3267;SDS011;1646;52.450;13.326;2023-11-18T08:41:34;16.53;;;8.33;;
3267;SDS011;1646;52.450;13.326;2023-11-18T08:46:35;13.47;;;8.60;;
3267;SDS011;1646;52.450;13.326;2023-11-18T08:51:36;13.80;;;7.27;;
3267;SDS011;1646;52.450;13.326;2023-11-18T08:56:34;15.20;;;8.30;;
3267;SDS011;1646;52.450;13.326;2023-11-18T09:01:40;12.23;;;6.80;;
3267;SDS011;1646;52.450;13.326;2023-11-18T09:06:41;12.37;;;6.97;;
3267;SDS011;1646;52.450;13.326;2023-11-18T09:11:41;12.27;;;7.30;;
3267;SDS011;1646;52.450;13.326;2023-11-18T09:16:41;13.50;;;7.40;;
3267;SDS011;1646;52.450;13.326;2023-11-18T09:21:40;13.30;;;7.03;;
3267;SDS011;1646;52.450;13.326;2023-11-18T09:26:41;13.43;;;6.70;;
3267;SDS011;1646;52.450;13.326;2023-11-18T09:31:42;13.80;;;7.17;;
3267;SDS011;1646;52.450;13.326;2023-11-18T09:36:40;14.40;;;7.00;;
3267;SDS011;1646;52.450;13.326;2023-11-18T09:41:39;12.00;;;7.10;;
3267;SDS011;1646;52.450;13.326;2023-11-18T09:46:39;11.97;;;7.27;;
3267;SDS011;1646;52.450;13.326;2023-11-18T09:51:44;11.40;;;6.80;;
3267;SDS011;1646;52.450;13.326;2023-11-18T09:56:45;11.37;;;6.60;;
3267;SDS011;1646;52.450;13.326;2023-11-18T10:01:56;10.13;;;6.60;;
3267;SDS011;1646;52.450;13.326;2023-11-18T10:06:56;13.37;;;7.47;;
3267;SDS011;1646;52.450;13.326;2023-11-18T10:11:55;9.97;;;5.97;;
3267;SDS011;1646;52.450;13.326;2023-11-18T10:17:06;8.60;;;5.20;;
3267;SDS011;1646;52.450;13.326;2023-11-18T10:22:05;10.00;;;5.47;;
3267;SDS011;1646;52.450;13.326;2023-11-18T10:27:21;9.97;;;6.60;;
3267;SDS011;1646;52.450;13.326;2023-11-18T10:32:23;11.10;;;6.57;;
3267;SDS011;1646;52.450;13.326;2023-11-18T10:37:25;10.63;;;6.47;;
3267;SDS011;1646;52.450;13.326;2023-11-18T10:42:28;13.80;;;6.37;;
3267;SDS011;1646;52.450;13.326;2023-11-18T10:47:28;12.23;;;6.90;;
3267;SDS011;1646;52.450;13.326;2023-11-18T10:52:29;8.07;;;5.30;;
3267;SDS011;1646;52.450;13.326;2023-11-18T10:57:31;12.87;;;7.03;;
3267;SDS011;1646;52.450;13.326;2023-11-18T11:02:33;15.90;;;7.10;;
3267;SDS011;1646;52.450;13.326;2023-11-18T11:07:36;14.10;;;7.53;;
3267;SDS011;1646;52.450;13.326;2023-11-18T11:12:40;18.10;;;8.77;;
3267;SDS011;1646;52.450;13.326;2023-11-18T11:17:51;17.67;;;8.53;;
3267;SDS011;1646;52.450;13.326;2023-11-18T11:22:56;21.90;;;9.40;;
3267;SDS011;1646;52.450;13.326;2023-11-18T11:28:08;22.30;;;8.13;;
3267;SDS011;1646;52.450;13.326;2023-11-18T11:33:16;12.40;;;6.63;;
3267;SDS011;1646;52.450;13.326;2023-11-18T11:38:20;12.57;;;6.70;;
3267;SDS011;1646;52.450;13.326;2023-11-18T11:43:18;11.07;;;6.40;;
3267;SDS011;1646;52.450;13.326;2023-11-18T11:48:19;15.87;;;8.70;;
3267;SDS011;1646;52.450;13.326;2023-11-18T11:53:25;18.00;;;9.40;;
3267;SDS011;1646;52.450;13.326;2023-11-18T11:58:28;18.30;;;8.90;;
3267;SDS011;1646;52.450;13.326;2023-11-18T12:03:30;17.90;;;10.30;;
3267;SDS011;1646;52.450;13.326;2023-11-18T12:08:35;15.10;;;9.20;;
3267;SDS011;1646;52.450;13.326;2023-11-18T12:13:34;15.43;;;8.73;;
3267;SDS011;1646;52.450;13.326;2023-11-18T12:18:37;16.10;;;8.70;;
3267;SDS011;1646;52.450;13.326;2023-11-18T12:23:36;16.60;;;8.47;;
3267;SDS011;1646;52.450;13.326;2023-11-18T12:28:54;16.63;;;8.50;;
3267;SDS011;1646;52.450;13.326;2023-11-18T12:34:03;20.63;;;8.37;;
3267;SDS011;1646;52.450;13.326;2023-11-18T12:39:19;13.60;;;8.13;;
3267;SDS011;1646;52.450;13.326;2023-11-18T12:44:38;13.37;;;7.67;;
3267;SDS011;1646;52.450;13.326;2023-11-18T12:49:55;14.43;;;6.90;;
3267;SDS011;1646;52.450;13.326;2023-11-18T12:54:57;13.90;;;8.10;;
3267;SDS011;1646;52.450;13.326;2023-11-18T12:59:55;12.47;;;7.50;;
3267;SDS011;1646;52.450;13.326;2023-11-18T13:04:54;11.20;;;7.00;;
3267;SDS011;1646;52.450;13.326;2023-11-18T13:09:54;15.73;;;7.50;;
3267;SDS011;1646;52.450;13.326;2023-11-18T13:14:54;11.67;;;7.80;;
3267;SDS011;1646;52.450;13.326;2023-11-18T13:19:53;11.90;;;7.77;;
3267;SDS011;1646;52.450;13.326;2023-11-18T13:24:53;14.30;;;8.37;;
3267;SDS011;1646;52.450;13.326;2023-11-18T13:29:51;16.90;;;8.03;;
3267;SDS011;1646;52.450;13.326;2023-11-18T13:34:50;16.53;;;8.27;;
3267;SDS011;1646;52.450;13.326;2023-11-18T13:39:54;15.60;;;7.23;;
3267;SDS011;1646;52.450;13.326;2023-11-18T13:44:52;15.53;;;7.10;;
3267;SDS011;1646;52.450;13.326;2023-11-18T13:49:56;15.37;;;8.47;;
3267;SDS011;1646;52.450;13.326;2023-11-18T13:54:58;13.40;;;7.50;;
3267;SDS011;1646;52.450;13.326;2023-11-18T13:59:56;17.40;;;8.50;;
3267;SDS011;1646;52.450;13.326;2023-11-18T14:04:55;16.43;;;9.40;;
3267;SDS011;1646;52.450;13.326;2023-11-18T14:09:53;19.30;;;8.23;;
3267;SDS011;1646;52.450;13.326;2023-11-18T14:14:54;16.67;;;8.50;;
3267;SDS011;1646;52.450;13.326;2023-11-18T14:19:53;19.07;;;7.53;;
3267;SDS011;1646;52.450;13.326;2023-11-18T14:24:51;14.00;;;7.50;;
3267;SDS011;1646;52.450;13.326;2023-11-18T14:29:50;14.40;;;8.07;;
3267;SDS011;1646;52.450;13.326;2023-11-18T14:34:50;23.93;;;8.60;;
3267;SDS011;1646;52.450;13.326;2023-11-18T14:39:50;16.40;;;8.27;;
3267;SDS011;1646;52.450;13.326;2023-11-18T14:44:49;17.97;;;9.30;;
3267;SDS011;1646;52.450;13.326;2023-11-18T14:49:49;16.90;;;8.57;;
3267;SDS011;1646;52.450;13.326;2023-11-18T14:54:49;15.10;;;8.17;;
3267;SDS011;1646;52.450;13.326;2023-11-18T14:59:47;18.10;;;8.20;;
3267;SDS011;1646;52.450;13.326;2023-11-18T15:04:46;14.40;;;8.10;;
3267;SDS011;1646;52.450;13.326;2023-11-18T15:09:46;16.90;;;8.97;;
3267;SDS011;1646;52.450;13.326;2023-11-18T15:14:44;19.37;;;9.80;;
3267;SDS011;1646;52.450;13.326;2023-11-18T15:19:43;18.87;;;9.70;;
3267;SDS011;1646;52.450;13.326;2023-11-18T15:24:41;17.13;;;8.97;;
3267;SDS011;1646;52.450;13.326;2023-11-18T15:29:41;15.33;;;8.80;;
3267;SDS011;1646;52.450;13.326;2023-11-18T15:34:45;15.63;;;8.93;;
3267;SDS011;1646;52.450;13.326;2023-11-18T15:39:44;18.73;;;8.73;;
3267;SDS011;1646;52.450;13.326;2023-11-18T15:44:44;19.47;;;8.97;;
3267;SDS011;1646;52.450;13.326;2023-11-18T15:49:42;16.53;;;8.00;;
3267;SDS011;1646;52.450;13.326;2023-11-18T15:54:40;13.23;;;7.00;;
3267;SDS011;1646;52.450;13.326;2023-11-18T15:59:39;14.13;;;7.20;;
3267;SDS011;1646;52.450;13.326;2023-11-18T16:04:39;17.80;;;7.33;;
3267;SDS011;1646;52.450;13.326;2023-11-18T16:09:37;12.80;;;7.40;;
3267;SDS011;1646;52.450;13.326;2023-11-18T16:14:36;9.67;;;7.23;;
3267;SDS011;1646;52.450;13.326;2023-11-18T16:19:35;12.23;;;6.70;;
3267;SDS011;1646;52.450;13.326;2023-11-18T16:24:34;12.50;;;7.27;;
3267;SDS011;1646;52.450;13.326;2023-11-18T16:29:33;11.67;;;6.47;;
3267;SDS011;1646;52.450;13.326;2023-11-18T16:34:31;17.20;;;7.20;;
3267;SDS011;1646;52.450;13.326;2023-11-18T16:39:29;15.83;;;8.30;;
3267;SDS011;1646;52.450;13.326;2023-11-18T16:44:30;13.90;;;7.63;;
3267;SDS011;1646;52.450;13.326;2023-11-18T16:49:29;13.23;;;7.20;;
3267;SDS011;1646;52.450;13.326;2023-11-18T16:54:27;13.23;;;7.20;;
3267;SDS011;1646;52.450;13.326;2023-11-18T16:59:37;19.47;;;9.30;;
3267;SDS011;1646;52.450;13.326;2023-11-18T17:04:36;14.73;;;8.93;;
3267;SDS011;1646;52.450;13.326;2023-11-18T17:09:34;14.63;;;7.60;;
3267;SDS011;1646;52.450;13.326;2023-11-18T17:14:32;13.00;;;7.43;;
3267;SDS011;1646;52.450;13.326;2023-11-18T17:19:32;12.20;;;6.97;;
3267;SDS011;1646;52.450;13.326;2023-11-18T17:24:32;14.90;;;8.30;;
3267;SDS011;1646;52.450;13.326;2023-11-18T17:29:30;14.90;;;7.93;;
3267;SDS011;1646;52.450;13.326;2023-11-18T17:34:28;11.50;;;6.67;;
3267;SDS011;1646;52.450;13.326;2023-11-18T17:39:28;10.93;;;7.20;;
3267;SDS011;1646;52.450;13.326;2023-11-18T17:44:26;13.43;;;7.73;;
3267;SDS011;1646;52.450;13.326;2023-11-18T17:49:25;12.97;;;7.70;;
3267;SDS011;1646;52.450;13.326;2023-11-18T17:54:23;14.50;;;7.37;;
3267;SDS011;1646;52.450;13.326;2023-11-18T17:59:23;13.60;;;7.33;;
3267;SDS011;1646;52.450;13.326;2023-11-18T18:04:22;10.57;;;6.60;;
3267;SDS011;1646;52.450;13.326;2023-11-18T18:09:20;11.60;;;7.03;;
3267;SDS011;1646;52.450;13.326;2023-11-18T18:14:20;9.00;;;6.47;;
3267;SDS011;1646;52.450;13.326;2023-11-18T18:19:20;10.03;;;6.97;;
3267;SDS011;1646;52.450;13.326;2023-11-18T18:24:18;12.00;;;7.60;;
3267;SDS011;1646;52.450;13.326;2023-11-18T18:29:17;11.73;;;8.03;;
3267;SDS011;1646;52.450;13.326;2023-11-18T18:34:16;12.97;;;7.90;;
3267;SDS011;1646;52.450;13.326;2023-11-18T18:39:15;13.40;;;7.50;;
3267;SDS011;1646;52.450;13.326;2023-11-18T18:44:14;9.93;;;6.57;;
3267;SDS011;1646;52.450;13.326;2023-11-18T18:49:14;15.37;;;8.63;;
3267;SDS011;1646;52.450;13.326;2023-11-18T18:54:13;12.80;;;7.93;;
3267;SDS011;1646;52.450;13.326;2023-11-18T18:59:13;13.77;;;7.53;;
3267;SDS011;1646;52.450;13.326;2023-11-18T19:04:12;15.60;;;8.50;;
3267;SDS011;1646;52.450;13.326;2023-11-18T19:09:10;12.70;;;7.60;;
3267;SDS011;1646;52.450;13.326;2023-11-18T19:14:10;12.13;;;7.43;;
3267;SDS011;1646;52.450;13.326;2023-11-18T19:19:09;12.37;;;7.53;;
3267;SDS011;1646;52.450;13.326;2023-11-18T19:24:08;13.17;;;7.53;;
3267;SDS011;1646;52.450;13.326;2023-11-18T19:29:10;15.10;;;8.27;;
3267;SDS011;1646;52.450;13.326;2023-11-18T19:34:08;15.80;;;8.80;;
3267;SDS011;1646;52.450;13.326;2023-11-18T19:39:07;10.10;;;6.30;;
3267;SDS011;1646;52.450;13.326;2023-11-18T19:44:06;12.17;;;6.80;;
3267;SDS011;1646;52.450;13.326;2023-11-18T19:49:06;11.77;;;7.77;;
3267;SDS011;1646;52.450;13.326;2023-11-18T19:54:07;11.00;;;7.17;;
3267;SDS011;1646;52.450;13.326;2023-11-18T19:59:06;12.50;;;7.80;;
3267;SDS011;1646;52.450;13.326;2023-11-18T20:04:05;12.73;;;8.07;;
3267;SDS011;1646;52.450;13.326;2023-11-18T20:09:04;15.90;;;8.53;;
3267;SDS011;1646;52.450;13.326;2023-11-18T20:14:04;15.63;;;7.30;;
3267;SDS011;1646;52.450;13.326;2023-11-18T20:19:02;12.50;;;7.47;;
3267;SDS011;1646;52.450;13.326;2023-11-18T20:24:02;14.37;;;6.50;;
3267;SDS011;1646;52.450;13.326;2023-11-18T20:29:01;13.73;;;7.20;;
3267;SDS011;1646;52.450;13.326;2023-11-18T20:34:00;10.60;;;6.73;;
3267;SDS011;1646;52.450;13.326;2023-11-18T20:38:59;10.97;;;6.47;;
3267;SDS011;1646;52.450;13.326;2023-11-18T20:43:58;15.00;;;7.00;;
3267;SDS011;1646;52.450;13.326;2023-11-18T20:48:58;12.10;;;6.93;;
3267;SDS011;1646;52.450;13.326;2023-11-18T20:53:56;11.37;;;6.40;;
3267;SDS011;1646;52.450;13.326;2023-11-18T20:58:56;10.63;;;6.43;;
3267;SDS011;1646;52.450;13.326;2023-11-18T21:03:56;13.80;;;6.07;;
3267;SDS011;1646;52.450;13.326;2023-11-18T21:08:56;8.40;;;5.73;;
3267;SDS011;1646;52.450;13.326;2023-11-18T21:13:56;12.37;;;7.00;;
3267;SDS011;1646;52.450;13.326;2023-11-18T21:19:08;10.77;;;6.00;;
3267;SDS011;1646;52.450;13.326;2023-11-18T21:24:07;9.30;;;6.50;;
3267;SDS011;1646;52.450;13.326;2023-11-18T21:29:05;11.90;;;5.93;;
3267;SDS011;1646;52.450;13.326;2023-11-18T21:34:03;10.50;;;5.90;;
3267;SDS011;1646;52.450;13.326;2023-11-18T21:39:04;9.90;;;6.70;;
3267;SDS011;1646;52.450;13.326;2023-11-18T21:44:02;8.30;;;6.00;;
3267;SDS011;1646;52.450;13.326;2023-11-18T21:49:01;9.93;;;5.93;;
3267;SDS011;1646;52.450;13.326;2023-11-18T21:54:04;8.77;;;5.60;;
3267;SDS011;1646;52.450;13.326;2023-11-18T21:59:03;9.10;;;5.90;;
3267;SDS011;1646;52.450;13.326;2023-11-18T22:04:01;10.13;;;6.53;;
3267;SDS011;1646;52.450;13.326;2023-11-18T22:09:01;9.57;;;6.00;;
3267;SDS011;1646;52.450;13.326;2023-11-18T22:14:01;8.07;;;6.17;;
3267;SDS011;1646;52.450;13.326;2023-11-18T22:19:00;14.27;;;6.93;;
3267;SDS011;1646;52.450;13.326;2023-11-18T22:24:01;9.00;;;6.40;;
3267;SDS011;1646;52.450;13.326;2023-11-18T22:29:00;9.20;;;5.67;;
3267;SDS011;1646;52.450;13.326;2023-11-18T22:33:59;9.00;;;6.53;;
3267;SDS011;1646;52.450;13.326;2023-11-18T22:38:57;12.23;;;7.53;;
3267;SDS011;1646;52.450;13.326;2023-11-18T22:43:55;12.90;;;7.13;;
3267;SDS011;1646;52.450;13.326;2023-11-18T22:48:55;11.70;;;6.27;;
3267;SDS011;1646;52.450;13.326;2023-11-18T22:53:53;11.80;;;7.57;;
3267;SDS011;1646;52.450;13.326;2023-11-18T22:58:52;11.13;;;6.63;;
3267;SDS011;1646;52.450;13.326;2023-11-18T23:03:50;10.83;;;8.00;;
3267;SDS011;1646;52.450;13.326;2023-11-18T23:08:50;11.30;;;7.37;;
3267;SDS011;1646;52.450;13.326;2023-11-18T23:13:49;9.93;;;6.90;;
3267;SDS011;1646;52.450;13.326;2023-11-18T23:18:48;10.73;;;7.20;;
3267;SDS011;1646;52.450;13.326;2023-11-18T23:23:50;13.00;;;8.07;;
3267;SDS011;1646;52.450;13.326;2023-11-18T23:28:48;11.93;;;7.57;;
3267;SDS011;1646;52.450;13.326;2023-11-18T23:33:47;11.97;;;6.47;;
3267;SDS011;1646;52.450;13.326;2023-11-18T23:38:46;11.17;;;6.47;;
3267;SDS011;1646;52.450;13.326;2023-11-18T23:43:45;12.03;;;7.60;;
3267;SDS011;1646;52.450;13.326;2023-11-18T23:48:44;10.20;;;6.23;;
3267;SDS011;1646;52.450;13.326;2023-11-18T23:53:42;10.97;;;7.70;;
3267;SDS011;1646;52.450;13.326;2023-11-18T23:58:41;12.60;;;7.20;;
